Time;durP1;ratioP1;P1;durP2;ratioP2;P2;SDS_P1;SDS_P2;PMS_P1;PMS_P2;Temp;Humidity;BMP_temperature;BMP_pressure;BME280_temperature;BME280_humidity;BME280_pressure;Samples;Min_cycle;Max_cycle;Signal;HPM_P1;HPM_P2
2020/12/16 00:00:11;;;;;;;57.80;32.17;;;;;;;3.68;72.33;100582.86;126859;1100;23453;-72
2020/12/16 00:02:59;;;;;;;62.50;31.80;;;;;;;3.68;72.70;100588.25;126895;1100;24983;-72
2020/12/16 00:05:27;;;;;;;58.95;32.10;;;;;;;3.68;72.31;100592.80;127235;1098;23233;-73
2020/12/16 00:07:55;;;;;;;57.78;32.50;;;;;;;3.70;72.95;100598.91;127067;1098;23417;-73
2020/12/16 00:10:23;;;;;;;51.18;29.77;;;;;;;3.71;73.09;100581.72;127167;1100;25087;-73
2020/12/16 00:12:51;;;;;;;59.30;32.75;;;;;;;3.73;72.45;100595.92;126684;1100;25055;-73
2020/12/16 00:15:20;;;;;;;55.85;31.45;;;;;;;3.73;72.38;100600.47;126669;1100;27789;-74
2020/12/16 00:17:50;;;;;;;51.53;30.00;;;;;;;3.72;72.46;100586.14;126242;1100;26897;-73
2020/12/16 00:20:18;;;;;;;54.20;31.35;;;;;;;3.73;72.47;100589.68;126255;1100;26830;-74
2020/12/16 00:22:46;;;;;;;53.25;30.30;;;;;;;3.72;72.46;100594.23;126214;1100;23344;-75
2020/12/16 00:25:14;;;;;;;55.87;30.97;;;;;;;3.74;72.85;100586.00;126244;1099;23600;-73
2020/12/16 00:27:45;;;;;;;58.50;32.58;;;;;;;3.76;72.87;100601.05;126201;1100;23398;-73
2020/12/16 00:30:13;;;;;;;58.28;30.02;;;;;;;3.78;72.87;100595.52;126210;1100;23393;-73
2020/12/16 00:32:41;;;;;;;50.17;30.02;;;;;;;3.79;72.73;100610.70;126251;1100;23383;-75
2020/12/16 00:35:10;;;;;;;63.63;33.60;;;;;;;3.78;72.92;100609.86;126242;1100;23348;-78
2020/12/16 00:37:41;;;;;;;56.23;31.17;;;;;;;3.78;72.63;100609.86;126186;1100;23486;-74
2020/12/16 00:40:13;;;;;;;58.42;33.28;;;;;;;3.77;72.53;100608.14;126213;1100;23485;-75
2020/12/16 00:42:51;;;;;;;57.45;32.70;;;;;;;3.79;73.21;100616.95;126240;1100;23482;-73
2020/12/16 00:45:20;;;;;;;58.52;31.30;;;;;;;3.84;73.32;100611.13;126254;1100;27936;-76
2020/12/16 00:47:49;;;;;;;53.87;30.05;;;;;;;3.88;73.15;100610.72;126172;1100;25062;-74
2020/12/16 00:50:21;;;;;;;54.08;30.55;;;;;;;3.93;72.97;100596.80;126197;1100;23378;-73
2020/12/16 00:53:01;;;;;;;51.77;31.13;;;;;;;3.98;72.87;100612.56;126220;1100;23422;-75
2020/12/16 00:55:32;;;;;;;53.07;29.80;;;;;;;3.97;73.01;100608.14;126172;1100;26827;-74
2020/12/16 00:58:00;;;;;;;56.05;30.30;;;;;;;3.97;72.42;100609.02;126224;1100;24972;-73
2020/12/16 01:00:29;;;;;;;51.45;30.48;;;;;;;3.97;72.71;100613.53;126201;1100;23507;-73
2020/12/16 01:03:04;;;;;;;57.23;32.23;;;;;;;3.98;72.92;100609.86;126244;1100;23409;-74
2020/12/16 01:05:32;;;;;;;51.85;30.85;;;;;;;4.00;72.96;100605.17;126255;1100;26513;-74
2020/12/16 01:08:02;;;;;;;54.30;29.67;;;;;;;4.04;72.75;100603.89;126288;1100;23477;-77
2020/12/16 01:10:30;;;;;;;55.63;31.15;;;;;;;4.07;73.08;100608.99;126225;1100;23441;-74
2020/12/16 01:13:00;;;;;;;56.02;30.70;;;;;;;4.09;72.87;100605.14;126201;1100;23348;-73
2020/12/16 01:15:31;;;;;;;57.35;31.15;;;;;;;4.08;72.55;100613.41;126266;1100;23490;-73
2020/12/16 01:18:03;;;;;;;56.15;31.15;;;;;;;4.12;72.48;100617.53;126329;1099;23347;-73
2020/12/16 01:20:37;;;;;;;55.70;32.25;;;;;;;4.14;72.54;100615.55;126243;1100;23343;-74
2020/12/16 01:23:16;;;;;;;61.08;34.92;;;;;;;4.15;72.43;100617.23;126239;1100;23549;-73
2020/12/16 01:25:44;;;;;;;64.73;34.17;;;;;;;4.19;72.91;100631.31;126191;1100;23364;-73
2020/12/16 01:28:13;;;;;;;65.33;36.30;;;;;;;4.17;72.59;100625.20;126281;1100;26519;-73
2020/12/16 01:30:47;;;;;;;53.13;29.92;;;;;;;4.16;72.45;100623.48;126169;1099;26861;-74
2020/12/16 01:33:16;;;;;;;52.62;31.75;;;;;;;4.13;72.87;100621.92;126204;1100;23410;-74
2020/12/16 01:35:45;;;;;;;52.20;29.18;;;;;;;4.13;72.88;100630.02;126186;1101;25220;-75
2020/12/16 01:38:14;;;;;;;54.08;32.48;;;;;;;4.12;72.35;100635.55;126197;1101;26466;-75
2020/12/16 01:40:45;;;;;;;62.75;34.05;;;;;;;4.08;72.59;100637.71;126177;1101;26806;-75
2020/12/16 01:43:14;;;;;;;68.10;38.42;;;;;;;4.08;73.04;100630.45;126203;1101;26813;-75
2020/12/16 01:45:43;;;;;;;61.30;34.75;;;;;;;4.12;72.68;100631.03;126270;1101;23362;-74
2020/12/16 01:48:11;;;;;;;61.13;31.42;;;;;;;4.14;72.73;100628.17;126178;1101;25222;-74
2020/12/16 01:50:39;;;;;;;63.75;33.30;;;;;;;4.12;72.53;100632.86;126195;1101;23457;-74
2020/12/16 01:53:19;;;;;;;59.30;30.27;;;;;;;4.09;72.56;100632.14;126199;1101;23351;-75
2020/12/16 01:55:50;;;;;;;50.05;28.80;;;;;;;4.06;72.55;100628.90;126175;1100;23482;-74
2020/12/16 01:58:29;;;;;;;49.48;29.35;;;;;;;4.05;73.08;100627.17;126203;1101;25096;-74
2020/12/16 02:01:02;;;;;;;61.13;31.70;;;;;;;4.05;73.04;100632.58;126220;1100;23684;-74
2020/12/16 02:03:34;;;;;;;48.43;28.73;;;;;;;4.05;73.08;100635.28;126234;1101;23486;-73
2020/12/16 02:06:14;;;;;;;56.98;30.55;;;;;;;4.06;72.84;100635.14;126210;1101;23356;-74
2020/12/16 02:08:50;;;;;;;50.05;28.02;;;;;;;4.08;73.26;100635.01;126192;1101;26548;-74
2020/12/16 02:11:19;;;;;;;50.13;28.33;;;;;;;4.08;73.08;100637.71;126246;1101;23513;-73
2020/12/16 02:13:53;;;;;;;52.47;32.20;;;;;;;4.10;73.59;100641.13;126200;1101;23402;-75
2020/12/16 02:16:22;;;;;;;48.13;30.08;;;;;;;4.08;73.47;100638.55;126225;1101;23822;-73
2020/12/16 02:18:52;;;;;;;50.67;30.55;;;;;;;4.09;73.53;100636.70;126177;1101;26580;-76
2020/12/16 02:21:28;;;;;;;57.40;31.12;;;;;;;4.09;73.59;100634.00;126202;1101;23351;-74
2020/12/16 02:24:12;;;;;;;47.20;28.20;;;;;;;4.12;73.73;100635.55;126321;1101;26969;-74
2020/12/16 02:26:42;;;;;;;52.93;29.23;;;;;;;4.13;73.69;100635.42;126235;1101;23463;-74
2020/12/16 02:29:11;;;;;;;45.27;26.53;;;;;;;4.12;73.19;100633.73;126175;1101;23365;-75
2020/12/16 02:31:44;;;;;;;50.52;28.40;;;;;;;4.11;73.53;100637.41;126206;1101;23422;-75
2020/12/16 02:34:14;;;;;;;47.88;27.48;;;;;;;4.13;73.71;100645.38;126176;1101;23424;-75
2020/12/16 02:36:45;;;;;;;46.13;28.42;;;;;;;4.13;73.61;100651.63;126227;1101;27133;-75
2020/12/16 02:39:26;;;;;;;45.75;25.97;;;;;;;4.14;73.78;100656.05;126185;1101;23350;-76
2020/12/16 02:42:10;;;;;;;46.30;26.30;;;;;;;4.16;73.89;100666.68;126190;1101;23492;-76
2020/12/16 02:44:38;;;;;;;43.58;26.65;;;;;;;4.19;74.06;100661.86;126247;1101;23414;-76
2020/12/16 02:47:19;;;;;;;44.88;28.45;;;;;;;4.22;73.48;100677.77;126205;1101;23402;-74
2020/12/16 02:49:49;;;;;;;38.25;23.42;;;;;;;4.22;73.56;100664.26;126194;1101;23494;-77
2020/12/16 02:52:18;;;;;;;41.40;26.30;;;;;;;4.25;73.91;100671.25;126220;1101;24830;-76
2020/12/16 02:54:47;;;;;;;53.38;29.07;;;;;;;4.25;73.68;100674.80;126167;1101;23414;-75
2020/12/16 02:57:24;;;;;;;44.33;25.23;;;;;;;4.25;73.61;100666.69;126225;1101;26490;-73
2020/12/16 02:59:59;;;;;;;45.05;26.42;;;;;;;4.26;74.10;100678.34;126233;1101;23347;-75
2020/12/16 03:02:47;;;;;;;49.70;26.93;;;;;;;4.27;73.84;100672.80;126211;1101;23369;-75
2020/12/16 03:05:48;;;;;;;43.00;26.55;;;;;;;4.28;74.10;100671.80;126091;1101;23557;-74
2020/12/16 03:08:30;;;;;;;47.47;27.60;;;;;;;4.28;73.80;100677.20;126235;1101;23422;-74
2020/12/16 03:11:03;;;;;;;47.05;28.75;;;;;;;4.28;74.18;100669.09;126204;1101;23402;-73
2020/12/16 03:13:32;;;;;;;47.50;27.95;;;;;;;4.30;74.42;100686.01;126203;1101;23485;-75
2020/12/16 03:16:03;;;;;;;51.53;28.87;;;;;;;4.35;74.15;100677.47;126240;1101;23351;-74
2020/12/16 03:18:35;;;;;;;42.85;25.55;;;;;;;4.35;74.19;100671.22;126237;1101;23401;-73
2020/12/16 03:21:06;;;;;;;39.63;23.05;;;;;;;4.34;74.10;100669.53;126217;1101;26645;-74
2020/12/16 03:23:35;;;;;;;49.18;26.33;;;;;;;4.36;74.68;100667.55;126173;1101;23351;-75
2020/12/16 03:26:20;;;;;;;42.62;26.85;;;;;;;4.38;74.43;100676.36;126201;1101;25208;-77
2020/12/16 03:29:17;;;;;;;37.67;22.22;;;;;;;4.38;74.12;100670.95;126215;1101;23454;-75
2020/12/16 03:32:01;;;;;;;46.55;25.43;;;;;;;4.38;74.72;100670.95;126146;1101;27976;-74
2020/12/16 03:34:44;;;;;;;45.50;25.50;;;;;;;4.42;74.63;100672.38;126168;1101;26424;-74
2020/12/16 03:37:18;;;;;;;40.03;25.87;;;;;;;4.42;74.39;100667.81;126208;1101;23458;-76
2020/12/16 03:39:47;;;;;;;42.23;26.57;;;;;;;4.44;74.54;100678.48;126206;1101;25208;-74
2020/12/16 03:42:19;;;;;;;39.50;24.67;;;;;;;4.45;74.49;100672.92;126226;1101;26500;-72
2020/12/16 03:44:48;;;;;;;42.93;26.00;;;;;;;4.46;75.06;100674.64;126159;1101;26517;-74
2020/12/16 03:47:16;;;;;;;38.43;23.97;;;;;;;4.47;74.61;100681.73;126174;1101;23815;-73
2020/12/16 03:49:47;;;;;;;39.75;25.68;;;;;;;4.45;74.46;100681.02;126155;1101;24980;-74
2020/12/16 03:52:16;;;;;;;42.00;26.45;;;;;;;4.45;74.59;100681.02;126148;1101;25191;-74
2020/12/16 03:55:12;;;;;;;45.43;26.68;;;;;;;4.43;74.44;100680.31;126199;1101;23389;-74
2020/12/16 03:57:51;;;;;;;51.95;28.40;;;;;;;4.45;74.70;100682.88;126183;1101;23380;-75
2020/12/16 04:00:48;;;;;;;50.33;28.03;;;;;;;4.45;74.75;100688.28;126087;1101;23491;-74
2020/12/16 04:03:16;;;;;;;47.75;26.77;;;;;;;4.46;74.70;100685.45;126209;1101;23495;-73
2020/12/16 04:06:17;;;;;;;50.90;26.95;;;;;;;4.50;75.15;100689.56;126085;1101;24972;-73
2020/12/16 04:08:46;;;;;;;45.83;26.77;;;;;;;4.55;75.10;100699.09;126210;1101;23465;-74
2020/12/16 04:11:26;;;;;;;45.38;26.68;;;;;;;4.57;74.92;100697.95;126171;1101;23365;-74
2020/12/16 04:14:04;;;;;;;45.15;27.70;;;;;;;4.59;75.28;100695.95;126189;1101;26811;-74
2020/12/16 04:16:36;;;;;;;41.02;24.87;;;;;;;4.61;75.05;100704.77;126200;1101;23367;-74
2020/12/16 04:19:10;;;;;;;38.28;26.02;;;;;;;4.61;75.49;100695.79;126260;1101;26911;-75
2020/12/16 04:21:42;;;;;;;40.38;25.65;;;;;;;4.60;75.03;100696.80;126248;1101;26494;-74
2020/12/16 04:24:14;;;;;;;38.83;24.63;;;;;;;4.60;75.19;100694.09;126192;1101;23350;-74
2020/12/16 04:26:49;;;;;;;39.58;25.88;;;;;;;4.57;75.35;100697.95;126207;1101;23417;-75
2020/12/16 04:29:18;;;;;;;41.43;26.03;;;;;;;4.58;75.09;100694.23;126187;1101;23505;-74
2020/12/16 04:31:51;;;;;;;47.78;29.20;;;;;;;4.60;75.48;100700.34;126241;1101;23465;-73
2020/12/16 04:34:23;;;;;;;50.80;29.95;;;;;;;4.60;75.24;100692.23;126180;1102;23581;-74
2020/12/16 04:36:52;;;;;;;52.08;27.22;;;;;;;4.60;75.11;100694.09;126165;1101;23462;-74
2020/12/16 04:39:21;;;;;;;53.20;28.40;;;;;;;4.58;74.92;100699.64;126197;1101;23429;-74
2020/12/16 04:41:53;;;;;;;53.73;29.63;;;;;;;4.58;75.41;100696.09;126200;1102;23358;-74
2020/12/16 04:44:22;;;;;;;53.20;30.30;;;;;;;4.60;75.23;100694.94;126209;1102;26849;-74
2020/12/16 04:46:56;;;;;;;53.60;29.43;;;;;;;4.62;75.14;100695.66;126211;1101;23492;-73
2020/12/16 04:49:31;;;;;;;44.53;26.82;;;;;;;4.63;75.35;100697.38;126228;1101;23451;-72
2020/12/16 04:51:59;;;;;;;44.58;27.27;;;;;;;4.64;75.29;100699.06;126234;1101;23351;-74
2020/12/16 04:54:43;;;;;;;52.53;28.03;;;;;;;4.65;75.60;100703.48;126206;1101;26594;-73
2020/12/16 04:57:13;;;;;;;57.95;29.50;;;;;;;4.70;75.86;100709.30;126266;1101;27855;-74
2020/12/16 04:59:43;;;;;;;51.00;26.07;;;;;;;4.73;75.76;100707.30;126167;1101;23359;-74
2020/12/16 05:02:27;;;;;;;49.38;28.15;;;;;;;4.73;75.66;100707.30;126221;1101;25060;-73
2020/12/16 05:05:08;;;;;;;48.08;26.77;;;;;;;4.75;75.53;100706.16;126192;1101;23397;-74
2020/12/16 05:07:36;;;;;;;46.02;28.52;;;;;;;4.80;75.40;100711.12;126205;1101;27088;-73
2020/12/16 05:10:04;;;;;;;42.55;28.12;;;;;;;4.81;75.87;100705.58;126193;1101;23499;-73
2020/12/16 05:12:36;;;;;;;40.78;26.10;;;;;;;4.83;75.52;100716.25;126224;1101;23483;-73
2020/12/16 05:15:04;;;;;;;44.17;26.00;;;;;;;4.83;75.60;100713.55;126208;1101;23408;-74
2020/12/16 05:17:32;;;;;;;48.33;26.00;;;;;;;4.80;75.52;100714.70;126178;1101;23347;-74
2020/12/16 05:20:08;;;;;;;39.30;25.67;;;;;;;4.83;75.79;100711.69;126192;1101;24403;-74
2020/12/16 05:22:36;;;;;;;43.30;26.00;;;;;;;4.86;75.87;100715.95;126171;1101;23447;-73
2020/12/16 05:25:04;;;;;;;50.40;28.85;;;;;;;4.88;75.73;100714.80;126177;1101;23344;-74
2020/12/16 05:27:33;;;;;;;44.27;27.40;;;;;;;4.91;75.39;100716.38;126216;1101;23414;-74
2020/12/16 05:30:07;;;;;;;46.63;28.55;;;;;;;4.94;75.54;100721.48;126239;1101;23415;-74
2020/12/16 05:32:37;;;;;;;47.78;29.80;;;;;;;4.93;75.10;100721.63;126229;1101;23412;-74
2020/12/16 05:35:29;;;;;;;59.48;33.10;;;;;;;4.93;75.50;100718.91;126314;1101;23416;-73
2020/12/16 05:38:02;;;;;;;57.85;35.05;;;;;;;4.90;75.16;100730.88;126262;1100;26588;-74
2020/12/16 05:40:33;;;;;;;73.70;49.73;;;;;;;4.91;75.60;100733.45;126230;1101;27862;-71
2020/12/16 05:43:03;;;;;;;87.00;57.45;;;;;;;4.94;75.29;100734.16;126227;1100;27935;-73
2020/12/16 05:45:38;;;;;;;75.52;50.50;;;;;;;4.97;75.57;100737.44;126294;1101;25248;-72
2020/12/16 05:48:11;;;;;;;73.97;47.23;;;;;;;4.99;75.66;100731.86;126259;1101;23413;-72
2020/12/16 05:50:59;;;;;;;48.73;33.30;;;;;;;4.98;75.32;100744.53;126214;1101;23356;-74
2020/12/16 05:53:29;;;;;;;39.92;27.62;;;;;;;5.00;75.06;100741.69;126185;1101;23351;-75
2020/12/16 05:56:00;;;;;;;44.53;29.37;;;;;;;5.00;75.56;100742.53;126258;1101;26517;-76
2020/12/16 05:58:32;;;;;;;45.12;29.82;;;;;;;5.00;75.63;100739.83;126271;1101;23362;-73
2020/12/16 06:01:06;;;;;;;46.42;32.15;;;;;;;4.98;74.99;100744.53;126251;1101;26545;-73
2020/12/16 06:03:40;;;;;;;48.58;31.07;;;;;;;5.01;75.69;100746.93;126244;1101;23485;-73
2020/12/16 06:06:10;;;;;;;52.97;32.27;;;;;;;5.05;75.17;100740.23;126294;1100;23415;-75
2020/12/16 06:08:42;;;;;;;56.98;33.20;;;;;;;5.06;75.35;100739.25;126215;1100;23419;-75
2020/12/16 06:11:12;;;;;;;53.27;32.87;;;;;;;5.03;75.51;100739.52;126208;1100;23396;-75
2020/12/16 06:13:46;;;;;;;55.25;32.25;;;;;;;5.03;75.72;100744.94;126140;1101;23343;-77
2020/12/16 06:16:14;;;;;;;53.87;33.60;;;;;;;5.06;75.80;100747.36;126218;1100;23358;-79
2020/12/16 06:18:47;;;;;;;53.43;33.27;;;;;;;5.08;74.97;100755.34;126166;1100;23824;-77
2020/12/16 06:21:15;;;;;;;59.73;34.03;;;;;;;5.09;75.05;100747.05;126188;1100;23344;-75
2020/12/16 06:23:45;;;;;;;45.30;27.93;;;;;;;5.09;75.31;100757.88;126136;1100;23391;-74
2020/12/16 06:26:21;;;;;;;52.48;32.00;;;;;;;5.10;75.05;100758.75;126153;1100;23443;-74
2020/12/16 06:28:49;;;;;;;45.07;29.17;;;;;;;5.11;75.06;100760.45;126106;1100;23369;-75
2020/12/16 06:31:32;;;;;;;50.05;31.17;;;;;;;5.11;75.68;100768.55;126214;1100;23352;-75
2020/12/16 06:34:06;;;;;;;49.43;29.03;;;;;;;5.14;75.49;100770.11;126191;1100;23401;-75
2020/12/16 06:36:40;;;;;;;46.33;31.68;;;;;;;5.11;75.20;100777.52;126206;1100;23352;-75
2020/12/16 06:39:23;;;;;;;53.42;34.58;;;;;;;5.13;75.65;100777.38;126192;1100;23344;-75
2020/12/16 06:41:58;;;;;;;60.00;37.90;;;;;;;5.14;75.38;100778.22;126174;1100;23552;-74
2020/12/16 06:44:27;;;;;;;56.27;36.70;;;;;;;5.13;75.14;100781.94;126187;1100;23370;-74
2020/12/16 06:46:58;;;;;;;46.25;33.35;;;;;;;5.15;74.83;100785.36;126170;1100;23337;-75
2020/12/16 06:49:30;;;;;;;86.28;68.47;;;;;;;5.13;75.19;100787.34;126144;1100;23412;-75
2020/12/16 06:52:09;;;;;;;61.37;43.80;;;;;;;5.14;74.73;100786.34;126152;1100;23586;-75
2020/12/16 06:54:52;;;;;;;50.50;33.42;;;;;;;5.15;75.00;100793.47;126131;1100;23424;-75
2020/12/16 06:57:25;;;;;;;48.23;29.75;;;;;;;5.17;75.02;100802.29;126204;1099;23347;-76
2020/12/16 07:00:00;;;;;;;50.95;36.05;;;;;;;5.20;75.38;100801.98;126189;1100;23401;-76
2020/12/16 07:02:35;;;;;;;56.80;39.80;;;;;;;5.25;75.54;100810.53;126247;1100;23328;-74
2020/12/16 07:05:07;;;;;;;61.30;36.77;;;;;;;5.26;75.07;100801.41;126170;1100;23331;-74
2020/12/16 07:07:40;;;;;;;;;;;;;;;5.25;75.50;100800.56;126199;1101;23392;-76
2020/12/16 07:10:33;;;;;;;56.77;37.60;;;;;;;5.23;75.16;100807.13;126158;1100;21566;-76
2020/12/16 07:13:34;;;;;;;65.87;42.50;;;;;;;5.25;75.63;100810.53;126163;1100;23328;-76
2020/12/16 07:16:12;;;;;;;80.25;54.40;;;;;;;5.26;74.97;100812.23;126144;1101;25216;-76
2020/12/16 07:18:47;;;;;;;99.07;69.22;;;;;;;5.28;75.35;100810.23;126161;1100;24348;-74
2020/12/16 07:21:25;;;;;;;61.83;40.67;;;;;;;5.30;75.27;100810.94;126265;1100;23336;-75
2020/12/16 07:24:04;;;;;;;65.20;39.63;;;;;;;5.32;75.00;100809.79;126687;1099;26823;-76
2020/12/16 07:26:55;;;;;;;60.78;36.98;;;;;;;5.35;74.96;100815.91;126177;1100;23357;-74
2020/12/16 07:29:34;;;;;;;66.73;38.97;;;;;;;5.36;75.33;100818.47;126203;1100;23334;-75
2020/12/16 07:32:11;;;;;;;73.10;39.90;;;;;;;5.39;75.39;100817.33;126184;1100;23536;-76
2020/12/16 07:34:50;;;;;;;67.15;40.63;;;;;;;5.43;75.16;100826.85;126198;1100;23467;-76
2020/12/16 07:37:23;;;;;;;66.82;40.70;;;;;;;5.46;75.55;100824.72;126264;1098;23389;-75
2020/12/16 07:39:57;;;;;;;61.68;38.42;;;;;;;5.49;74.73;100828.98;126183;1100;26526;-77
2020/12/16 07:42:30;;;;;;;69.53;43.87;;;;;;;5.51;75.13;100837.80;126260;1100;23377;-79
2020/12/16 07:45:03;;;;;;;87.50;59.38;;;;;;;5.51;75.08;100835.09;126394;1100;23428;-75
2020/12/16 07:47:32;;;;;;;81.90;57.53;;;;;;;5.52;74.95;100840.34;126310;1100;23332;-76
2020/12/16 07:50:00;;;;;;;76.45;48.75;;;;;;;5.53;74.73;100842.06;126283;1100;23327;-77
2020/12/16 07:52:30;;;;;;;72.03;46.85;;;;;;;5.57;74.78;100844.46;126578;1100;23382;-78
2020/12/16 07:54:59;;;;;;;68.47;45.33;;;;;;;5.59;74.76;100848.75;126303;1100;28231;-77
2020/12/16 07:57:35;;;;;;;76.12;45.73;;;;;;;5.65;74.62;100841.88;126227;1100;23476;-77
2020/12/16 08:00:04;;;;;;;76.02;45.48;;;;;;;5.68;74.79;100850.56;126357;1100;26642;-76
2020/12/16 08:02:44;;;;;;;79.25;50.95;;;;;;;5.72;75.55;100843.86;126241;1101;23483;-75
2020/12/16 08:05:14;;;;;;;73.77;46.07;;;;;;;5.76;75.34;100848.96;126252;1101;23358;-75
2020/12/16 08:07:43;;;;;;;96.15;57.10;;;;;;;5.81;75.52;100847.53;126209;1100;26785;-75
2020/12/16 08:10:11;;;;;;;90.32;54.42;;;;;;;5.88;75.73;100855.91;126201;1102;23346;-74
2020/12/16 08:12:42;;;;;;;83.62;53.33;;;;;;;5.90;75.37;100846.63;126217;1100;25847;-75
2020/12/16 08:15:17;;;;;;;79.82;48.65;;;;;;;5.95;75.64;100856.19;126232;1100;23345;-74
2020/12/16 08:17:51;;;;;;;92.75;59.93;;;;;;;5.98;74.70;100864.03;126311;1098;23474;-75
2020/12/16 08:20:25;;;;;;;74.87;48.80;;;;;;;6.00;74.92;100862.03;126211;1100;23431;-74
2020/12/16 08:23:01;;;;;;;77.73;46.13;;;;;;;6.01;75.15;100869.98;126266;1100;23385;-74
2020/12/16 08:25:31;;;;;;;83.37;52.17;;;;;;;6.03;75.14;100870.69;126249;1101;23357;-75
2020/12/16 08:28:04;;;;;;;89.67;60.00;;;;;;;6.05;75.48;100881.39;126226;1101;23361;-75
2020/12/16 08:30:34;;;;;;;85.93;55.20;;;;;;;6.07;74.73;100882.09;126297;1100;23349;-76
2020/12/16 08:33:08;;;;;;;80.45;48.90;;;;;;;6.10;75.12;100884.48;126208;1100;23437;-74
2020/12/16 08:35:48;;;;;;;72.17;48.13;;;;;;;6.11;75.29;100894.34;126302;1100;23463;-77
2020/12/16 08:38:36;;;;;;;82.90;51.13;;;;;;;6.11;74.87;100903.31;126277;1100;26836;-74
2020/12/16 08:41:08;;;;;;;70.60;45.88;;;;;;;6.12;75.63;100917.70;126192;1101;24977;-75
2020/12/16 08:43:39;;;;;;;70.25;49.30;;;;;;;6.12;75.73;100918.58;126216;1100;26826;-75
2020/12/16 08:46:13;;;;;;;73.40;48.43;;;;;;;6.12;74.88;100926.70;126288;1100;26492;-74
2020/12/16 08:49:03;;;;;;;75.33;50.37;;;;;;;6.11;75.00;100929.55;126278;1100;23536;-76
2020/12/16 08:51:38;;;;;;;91.80;49.63;;;;;;;6.10;75.07;100930.54;126335;1100;24151;-73
2020/12/16 08:54:10;;;;;;;77.78;49.00;;;;;;;6.09;75.19;100924.27;126375;1100;23546;-76
2020/12/16 08:56:43;;;;;;;82.45;55.25;;;;;;;6.10;75.56;100925.12;126604;1100;23343;-74
2020/12/16 08:59:33;;;;;;;80.28;51.65;;;;;;;6.11;75.65;100926.84;126349;1101;26411;-76
2020/12/16 09:02:01;;;;;;;82.00;52.58;;;;;;;6.11;75.52;100922.27;126427;1099;24649;-75
2020/12/16 09:04:32;;;;;;;79.77;54.03;;;;;;;6.15;75.95;100921.99;126715;1098;23397;-77
2020/12/16 09:07:12;;;;;;;86.60;56.23;;;;;;;6.22;76.17;100923.09;126342;1100;23364;-77
2020/12/16 09:09:46;;;;;;;78.95;50.60;;;;;;;6.27;75.77;100926.19;126526;1098;23385;-76
2020/12/16 09:12:23;;;;;;;80.57;48.85;;;;;;;6.28;75.66;100928.76;126647;1099;23380;-75
2020/12/16 09:14:55;;;;;;;79.10;48.40;;;;;;;6.28;75.79;100936.05;126699;1098;23521;-77
2020/12/16 09:17:26;;;;;;;70.83;47.27;;;;;;;6.26;76.19;100935.34;126369;1100;23469;-76
2020/12/16 09:19:54;;;;;;;79.32;52.58;;;;;;;6.26;75.84;100932.63;126201;1100;23418;-75
2020/12/16 09:22:32;;;;;;;80.80;51.68;;;;;;;6.22;75.79;100934.77;126656;1098;23802;-78
2020/12/16 09:25:00;;;;;;;77.25;51.63;;;;;;;6.22;75.93;100932.06;126299;1100;25879;-81
2020/12/16 09:27:29;;;;;;;77.60;51.48;;;;;;;6.24;76.33;100927.35;126232;1100;26565;-78
2020/12/16 09:29:57;;;;;;;85.97;55.80;;;;;;;6.27;76.34;100928.91;126291;1098;23444;-78
2020/12/16 09:32:26;;;;;;;83.60;53.40;;;;;;;6.29;76.80;100935.91;126370;1100;23526;-79
2020/12/16 09:34:55;;;;;;;84.30;57.88;;;;;;;6.34;76.55;100933.59;126255;1100;23384;-79
2020/12/16 09:37:35;;;;;;;86.35;58.13;;;;;;;6.38;76.35;100939.57;126214;1100;23398;-80
2020/12/16 09:40:08;;;;;;;81.75;57.80;;;;;;;6.43;76.59;100941.83;126293;1098;26487;-78
2020/12/16 09:42:38;;;;;;;83.55;52.15;;;;;;;6.46;76.65;100944.22;126212;1100;24923;-79
2020/12/16 09:45:20;;;;;;;75.83;49.83;;;;;;;6.45;76.46;100945.23;126175;1100;23321;-77
2020/12/16 09:47:51;;;;;;;74.47;50.75;;;;;;;6.45;76.48;100946.09;126186;1100;23428;-77
2020/12/16 09:50:29;;;;;;;92.90;59.93;;;;;;;6.46;76.55;100946.94;126303;1101;23488;-76
2020/12/16 09:53:06;;;;;;;90.75;62.73;;;;;;;6.46;76.62;100950.48;126324;1100;25129;-80
2020/12/16 09:55:43;;;;;;;93.35;65.42;;;;;;;6.48;76.82;100944.92;126277;1100;23327;-80
2020/12/16 09:58:15;;;;;;;90.80;62.93;;;;;;;6.52;76.79;100949.05;126214;1100;23393;-75
2020/12/16 10:00:44;;;;;;;89.03;55.80;;;;;;;6.56;77.16;100946.90;126225;1101;23342;-77
2020/12/16 10:03:13;;;;;;;75.40;55.10;;;;;;;6.57;76.47;100938.59;126225;1100;26427;-78
2020/12/16 10:05:42;;;;;;;100.37;63.40;;;;;;;6.59;76.29;100942.00;126301;1101;23405;-75
2020/12/16 10:08:17;;;;;;;98.92;55.63;;;;;;;6.62;77.15;100949.00;126192;1101;23346;-76
2020/12/16 10:10:46;;;;;;;115.27;70.40;;;;;;;6.63;76.45;100946.13;126282;1100;23348;-75
2020/12/16 10:13:15;;;;;;;94.83;62.27;;;;;;;6.64;76.70;100952.42;126227;1100;23445;-74
2020/12/16 10:15:43;;;;;;;84.25;55.45;;;;;;;6.63;76.79;100945.28;126377;1099;23383;-76
2020/12/16 10:18:12;;;;;;;82.57;56.55;;;;;;;6.64;76.87;100955.98;126202;1100;23373;-75
2020/12/16 10:20:40;;;;;;;80.53;56.07;;;;;;;6.68;76.60;100954.67;126389;1098;23329;-78
2020/12/16 10:23:08;;;;;;;71.97;51.30;;;;;;;6.73;77.35;100951.50;126250;1098;26456;-75
2020/12/16 10:25:36;;;;;;;77.47;51.13;;;;;;;6.72;76.27;100947.95;126227;1100;23333;-76
2020/12/16 10:28:09;;;;;;;75.57;52.60;;;;;;;6.75;76.63;100950.34;126759;1098;23372;-75
2020/12/16 10:30:38;;;;;;;79.37;57.15;;;;;;;6.75;76.92;100955.77;126745;1098;26424;-76
2020/12/16 10:33:07;;;;;;;85.72;60.25;;;;;;;6.77;76.34;100952.06;126238;1100;23414;-74
2020/12/16 10:35:36;;;;;;;92.35;57.38;;;;;;;6.80;76.46;100962.59;126647;1098;23456;-74
2020/12/16 10:38:04;;;;;;;80.32;55.80;;;;;;;6.79;76.99;100964.45;126344;1100;24833;-74
2020/12/16 10:40:33;;;;;;;86.65;55.30;;;;;;;6.80;77.00;100959.88;126672;1098;23348;-73
2020/12/16 10:43:03;;;;;;;85.80;54.37;;;;;;;6.81;76.35;100964.31;126369;1100;26940;-74
2020/12/16 10:45:31;;;;;;;95.85;63.60;;;;;;;6.83;76.87;100960.44;126392;1100;23406;-76
2020/12/16 10:48:00;;;;;;;92.07;62.27;;;;;;;6.85;77.00;100962.97;126385;1099;23369;-74
2020/12/16 10:50:32;;;;;;;81.93;56.03;;;;;;;6.84;76.19;100964.84;126828;1098;23337;-74
2020/12/16 10:53:00;;;;;;;;;;;;;;;6.84;76.74;100970.27;126386;1100;23425;-74
2020/12/16 10:55:29;;;;;;;100.65;63.92;;;;;;;6.84;76.67;100972.98;126395;1100;21563;-74
2020/12/16 10:57:57;;;;;;;99.47;66.10;;;;;;;6.86;76.37;100973.68;126460;1099;23523;-79
2020/12/16 11:00:25;;;;;;;105.27;68.12;;;;;;;6.90;76.62;100961.52;126804;1100;23330;-76
2020/12/16 11:02:54;;;;;;;88.10;60.80;;;;;;;6.92;76.33;100964.94;126839;1098;23318;-75
2020/12/16 11:05:22;;;;;;;90.40;64.05;;;;;;;6.96;76.88;100962.78;126811;1099;23412;-76
2020/12/16 11:07:51;;;;;;;93.10;63.50;;;;;;;7.00;76.98;100971.45;126471;1100;23315;-78
2020/12/16 11:10:19;;;;;;;97.12;65.62;;;;;;;7.03;76.74;100968.45;126409;1100;24880;-76
2020/12/16 11:12:47;;;;;;;81.67;58.38;;;;;;;7.03;76.65;100969.29;126415;1099;23357;-77
2020/12/16 11:15:15;;;;;;;88.67;62.55;;;;;;;7.06;76.88;100969.00;126374;1100;23328;-77
2020/12/16 11:17:43;;;;;;;87.57;61.75;;;;;;;7.07;76.77;100970.69;126295;1100;23401;-76
2020/12/16 11:20:11;;;;;;;97.42;68.12;;;;;;;7.11;76.26;100968.53;126404;1100;23331;-77
2020/12/16 11:22:40;;;;;;;103.70;66.72;;;;;;;7.15;76.77;100961.80;126371;1100;23795;-77
2020/12/16 11:25:08;;;;;;;103.27;68.15;;;;;;;7.15;76.14;100953.66;126815;1098;23400;-75
2020/12/16 11:27:36;;;;;;;110.95;71.67;;;;;;;7.16;76.50;100956.19;127019;1100;26298;-75
2020/12/16 11:30:04;;;;;;;99.13;68.22;;;;;;;7.21;76.66;100960.30;126749;1099;23775;-76
2020/12/16 11:32:35;;;;;;;103.70;68.72;;;;;;;7.23;76.08;100958.29;126451;1100;26819;-76
2020/12/16 11:35:04;;;;;;;113.35;66.95;;;;;;;7.26;76.07;100955.28;126715;1098;23436;-76